sensor_id;sensor_type;location;lat;lon;timestamp;P1;durP1;ratioP1;P2;durP2;ratioP2
80625;SDS011;69982;51.758;5.784;2024-01-25T00:01:41;25.00;;;4.00;;
80625;SDS011;69982;51.758;5.784;2024-01-25T00:04:09;22.50;;;3.30;;
80625;SDS011;69982;51.758;5.784;2024-01-25T00:06:42;26.00;;;4.10;;
80625;SDS011;69982;51.758;5.784;2024-01-25T00:09:33;30.60;;;3.60;;
80625;SDS011;69982;51.758;5.784;2024-01-25T00:12:23;26.70;;;4.60;;
80625;SDS011;69982;51.758;5.784;2024-01-25T00:14:59;24.40;;;3.60;;
80625;SDS011;69982;51.758;5.784;2024-01-25T00:17:28;21.00;;;3.40;;
80625;SDS011;69982;51.758;5.784;2024-01-25T00:19:57;26.20;;;4.90;;
80625;SDS011;69982;51.758;5.784;2024-01-25T00:22:24;18.70;;;3.00;;
80625;SDS011;69982;51.758;5.784;2024-01-25T00:24:51;28.50;;;3.30;;
80625;SDS011;69982;51.758;5.784;2024-01-25T00:27:18;24.30;;;4.00;;
80625;SDS011;69982;51.758;5.784;2024-01-25T00:32:21;27.70;;;2.90;;
80625;SDS011;69982;51.758;5.784;2024-01-25T00:35:07;21.70;;;2.70;;
80625;SDS011;69982;51.758;5.784;2024-01-25T00:37:43;25.30;;;3.60;;
80625;SDS011;69982;51.758;5.784;2024-01-25T00:40:16;16.20;;;2.50;;
80625;SDS011;69982;51.758;5.784;2024-01-25T00:45:20;20.80;;;3.40;;
80625;SDS011;69982;51.758;5.784;2024-01-25T00:47:52;19.40;;;3.30;;
80625;SDS011;69982;51.758;5.784;2024-01-25T00:50:28;23.70;;;3.10;;
80625;SDS011;69982;51.758;5.784;2024-01-25T00:53:31;20.80;;;2.70;;
80625;SDS011;69982;51.758;5.784;2024-01-25T00:56:01;20.20;;;3.10;;
80625;SDS011;69982;51.758;5.784;2024-01-25T00:58:33;22.10;;;3.70;;
80625;SDS011;69982;51.758;5.784;2024-01-25T01:01:13;18.70;;;3.10;;
80625;SDS011;69982;51.758;5.784;2024-01-25T01:03:55;23.00;;;3.10;;
80625;SDS011;69982;51.758;5.784;2024-01-25T01:06:33;21.90;;;3.80;;
80625;SDS011;69982;51.758;5.784;2024-01-25T01:09:03;23.70;;;3.10;;
80625;SDS011;69982;51.758;5.784;2024-01-25T01:11:36;25.20;;;3.20;;
80625;SDS011;69982;51.758;5.784;2024-01-25T01:14:15;23.60;;;3.00;;
80625;SDS011;69982;51.758;5.784;2024-01-25T01:16:42;20.80;;;3.50;;
80625;SDS011;69982;51.758;5.784;2024-01-25T01:19:11;18.80;;;3.00;;
80625;SDS011;69982;51.758;5.784;2024-01-25T01:21:41;21.00;;;3.20;;
80625;SDS011;69982;51.758;5.784;2024-01-25T01:26:39;21.20;;;3.20;;
80625;SDS011;69982;51.758;5.784;2024-01-25T01:29:23;20.00;;;2.80;;
80625;SDS011;69982;51.758;5.784;2024-01-25T01:32:20;14.00;;;2.10;;
80625;SDS011;69982;51.758;5.784;2024-01-25T01:37:43;18.60;;;3.10;;
80625;SDS011;69982;51.758;5.784;2024-01-25T01:40:14;20.90;;;2.20;;
80625;SDS011;69982;51.758;5.784;2024-01-25T01:42:58;24.50;;;3.20;;
80625;SDS011;69982;51.758;5.784;2024-01-25T01:45:49;18.70;;;2.80;;
80625;SDS011;69982;51.758;5.784;2024-01-25T01:48:40;25.10;;;3.20;;
80625;SDS011;69982;51.758;5.784;2024-01-25T01:51:14;20.90;;;3.50;;
80625;SDS011;69982;51.758;5.784;2024-01-25T01:53:40;19.50;;;2.30;;
80625;SDS011;69982;51.758;5.784;2024-01-25T01:56:07;28.20;;;3.50;;
80625;SDS011;69982;51.758;5.784;2024-01-25T01:58:36;18.30;;;3.00;;
80625;SDS011;69982;51.758;5.784;2024-01-25T02:01:03;23.20;;;3.20;;
80625;SDS011;69982;51.758;5.784;2024-01-25T02:03:31;18.20;;;2.80;;
80625;SDS011;69982;51.758;5.784;2024-01-25T02:06:00;21.90;;;3.30;;
80625;SDS011;69982;51.758;5.784;2024-01-25T02:08:29;23.60;;;3.00;;
80625;SDS011;69982;51.758;5.784;2024-01-25T02:11:04;25.20;;;3.10;;
80625;SDS011;69982;51.758;5.784;2024-01-25T02:13:31;26.20;;;2.80;;
80625;SDS011;69982;51.758;5.784;2024-01-25T02:15:58;26.20;;;3.00;;
80625;SDS011;69982;51.758;5.784;2024-01-25T02:18:25;25.10;;;3.60;;
80625;SDS011;69982;51.758;5.784;2024-01-25T02:20:52;23.50;;;3.40;;
80625;SDS011;69982;51.758;5.784;2024-01-25T02:23:18;25.80;;;3.40;;
80625;SDS011;69982;51.758;5.784;2024-01-25T02:25:45;24.50;;;3.10;;
80625;SDS011;69982;51.758;5.784;2024-01-25T02:28:26;22.00;;;2.80;;
80625;SDS011;69982;51.758;5.784;2024-01-25T02:30:55;29.20;;;3.50;;
80625;SDS011;69982;51.758;5.784;2024-01-25T02:33:26;22.50;;;3.20;;
80625;SDS011;69982;51.758;5.784;2024-01-25T02:35:52;19.00;;;3.10;;
80625;SDS011;69982;51.758;5.784;2024-01-25T02:38:19;24.10;;;3.30;;
80625;SDS011;69982;51.758;5.784;2024-01-25T02:40:45;21.60;;;3.40;;
80625;SDS011;69982;51.758;5.784;2024-01-25T02:43:15;23.20;;;4.30;;
80625;SDS011;69982;51.758;5.784;2024-01-25T02:45:42;25.10;;;2.80;;
80625;SDS011;69982;51.758;5.784;2024-01-25T02:48:08;27.40;;;3.60;;
80625;SDS011;69982;51.758;5.784;2024-01-25T02:50:38;21.10;;;3.50;;
80625;SDS011;69982;51.758;5.784;2024-01-25T02:53:04;27.00;;;3.70;;
80625;SDS011;69982;51.758;5.784;2024-01-25T02:55:31;27.10;;;3.20;;
80625;SDS011;69982;51.758;5.784;2024-01-25T02:57:58;20.70;;;3.00;;
80625;SDS011;69982;51.758;5.784;2024-01-25T03:00:26;27.00;;;3.20;;
80625;SDS011;69982;51.758;5.784;2024-01-25T03:02:53;18.90;;;2.80;;
80625;SDS011;69982;51.758;5.784;2024-01-25T03:05:20;21.80;;;3.70;;
80625;SDS011;69982;51.758;5.784;2024-01-25T03:07:52;20.90;;;3.10;;
80625;SDS011;69982;51.758;5.784;2024-01-25T03:10:19;28.40;;;3.70;;
80625;SDS011;69982;51.758;5.784;2024-01-25T03:12:46;29.70;;;4.20;;
80625;SDS011;69982;51.758;5.784;2024-01-25T03:15:12;29.70;;;3.10;;
80625;SDS011;69982;51.758;5.784;2024-01-25T03:17:39;23.50;;;2.70;;
80625;SDS011;69982;51.758;5.784;2024-01-25T03:20:07;23.60;;;2.60;;
80625;SDS011;69982;51.758;5.784;2024-01-25T03:22:33;18.40;;;2.60;;
80625;SDS011;69982;51.758;5.784;2024-01-25T03:25:00;27.70;;;3.50;;
80625;SDS011;69982;51.758;5.784;2024-01-25T03:27:27;23.60;;;3.40;;
80625;SDS011;69982;51.758;5.784;2024-01-25T03:29:53;24.50;;;3.00;;
80625;SDS011;69982;51.758;5.784;2024-01-25T03:32:20;23.20;;;4.40;;
80625;SDS011;69982;51.758;5.784;2024-01-25T03:34:46;27.30;;;4.50;;
80625;SDS011;69982;51.758;5.784;2024-01-25T03:37:15;24.50;;;4.90;;
80625;SDS011;69982;51.758;5.784;2024-01-25T03:39:45;18.00;;;3.20;;
80625;SDS011;69982;51.758;5.784;2024-01-25T03:42:11;24.10;;;3.20;;
80625;SDS011;69982;51.758;5.784;2024-01-25T03:44:37;18.00;;;2.90;;
80625;SDS011;69982;51.758;5.784;2024-01-25T03:47:10;33.00;;;4.20;;
80625;SDS011;69982;51.758;5.784;2024-01-25T03:49:37;27.30;;;4.60;;
80625;SDS011;69982;51.758;5.784;2024-01-25T03:52:04;27.80;;;3.80;;
80625;SDS011;69982;51.758;5.784;2024-01-25T03:54:31;26.20;;;4.10;;
80625;SDS011;69982;51.758;5.784;2024-01-25T03:56:58;23.30;;;4.00;;
80625;SDS011;69982;51.758;5.784;2024-01-25T03:59:25;22.10;;;3.20;;
80625;SDS011;69982;51.758;5.784;2024-01-25T04:01:52;28.80;;;3.20;;
80625;SDS011;69982;51.758;5.784;2024-01-25T04:04:21;30.90;;;3.90;;
80625;SDS011;69982;51.758;5.784;2024-01-25T04:06:52;23.30;;;3.80;;
80625;SDS011;69982;51.758;5.784;2024-01-25T04:09:19;22.40;;;3.50;;
80625;SDS011;69982;51.758;5.784;2024-01-25T04:11:46;28.80;;;3.50;;
80625;SDS011;69982;51.758;5.784;2024-01-25T04:14:13;23.30;;;3.40;;
80625;SDS011;69982;51.758;5.784;2024-01-25T04:16:40;27.90;;;3.70;;
80625;SDS011;69982;51.758;5.784;2024-01-25T04:19:07;23.50;;;3.10;;
80625;SDS011;69982;51.758;5.784;2024-01-25T04:21:37;23.10;;;3.30;;
80625;SDS011;69982;51.758;5.784;2024-01-25T04:24:04;29.30;;;4.20;;
80625;SDS011;69982;51.758;5.784;2024-01-25T04:26:31;26.20;;;4.20;;
80625;SDS011;69982;51.758;5.784;2024-01-25T04:28:59;26.90;;;3.90;;
80625;SDS011;69982;51.758;5.784;2024-01-25T04:31:26;24.70;;;5.40;;
80625;SDS011;69982;51.758;5.784;2024-01-25T04:33:55;24.10;;;3.40;;
80625;SDS011;69982;51.758;5.784;2024-01-25T04:36:25;27.50;;;3.80;;
80625;SDS011;69982;51.758;5.784;2024-01-25T04:38:52;24.70;;;3.30;;
80625;SDS011;69982;51.758;5.784;2024-01-25T04:41:19;25.80;;;4.10;;
80625;SDS011;69982;51.758;5.784;2024-01-25T04:43:45;24.90;;;3.70;;
80625;SDS011;69982;51.758;5.784;2024-01-25T04:46:13;24.10;;;3.90;;
80625;SDS011;69982;51.758;5.784;2024-01-25T04:48:42;21.50;;;3.30;;
80625;SDS011;69982;51.758;5.784;2024-01-25T04:51:15;17.40;;;3.20;;
80625;SDS011;69982;51.758;5.784;2024-01-25T04:53:43;22.40;;;3.20;;
80625;SDS011;69982;51.758;5.784;2024-01-25T04:56:12;21.50;;;3.10;;
80625;SDS011;69982;51.758;5.784;2024-01-25T04:58:39;27.20;;;4.20;;
80625;SDS011;69982;51.758;5.784;2024-01-25T05:01:06;25.30;;;3.10;;
80625;SDS011;69982;51.758;5.784;2024-01-25T05:03:35;26.50;;;3.90;;
80625;SDS011;69982;51.758;5.784;2024-01-25T05:06:01;24.60;;;3.00;;
80625;SDS011;69982;51.758;5.784;2024-01-25T05:08:28;23.30;;;3.40;;
80625;SDS011;69982;51.758;5.784;2024-01-25T05:10:57;23.40;;;4.00;;
80625;SDS011;69982;51.758;5.784;2024-01-25T05:13:27;24.60;;;3.30;;
80625;SDS011;69982;51.758;5.784;2024-01-25T05:15:54;19.30;;;2.80;;
80625;SDS011;69982;51.758;5.784;2024-01-25T05:18:20;31.40;;;3.90;;
80625;SDS011;69982;51.758;5.784;2024-01-25T05:20:47;21.80;;;4.00;;
80625;SDS011;69982;51.758;5.784;2024-01-25T05:23:14;22.90;;;4.10;;
80625;SDS011;69982;51.758;5.784;2024-01-25T05:25:43;24.60;;;3.80;;
80625;SDS011;69982;51.758;5.784;2024-01-25T05:28:09;26.90;;;4.00;;
80625;SDS011;69982;51.758;5.784;2024-01-25T05:30:36;29.10;;;4.10;;
80625;SDS011;69982;51.758;5.784;2024-01-25T05:33:03;27.60;;;3.60;;
80625;SDS011;69982;51.758;5.784;2024-01-25T05:35:29;24.50;;;3.60;;
80625;SDS011;69982;51.758;5.784;2024-01-25T05:37:56;34.20;;;5.20;;
80625;SDS011;69982;51.758;5.784;2024-01-25T05:40:26;28.20;;;4.60;;
80625;SDS011;69982;51.758;5.784;2024-01-25T05:42:53;26.00;;;4.00;;
80625;SDS011;69982;51.758;5.784;2024-01-25T05:45:20;27.40;;;5.30;;
80625;SDS011;69982;51.758;5.784;2024-01-25T05:47:56;24.10;;;5.30;;
80625;SDS011;69982;51.758;5.784;2024-01-25T05:50:31;31.30;;;4.60;;
80625;SDS011;69982;51.758;5.784;2024-01-25T05:52:57;28.40;;;4.40;;
80625;SDS011;69982;51.758;5.784;2024-01-25T05:55:24;35.60;;;5.00;;
80625;SDS011;69982;51.758;5.784;2024-01-25T05:57:52;30.00;;;4.30;;
80625;SDS011;69982;51.758;5.784;2024-01-25T06:00:18;16.50;;;3.20;;
80625;SDS011;69982;51.758;5.784;2024-01-25T06:02:51;20.80;;;2.90;;
80625;SDS011;69982;51.758;5.784;2024-01-25T06:05:17;24.60;;;4.10;;
80625;SDS011;69982;51.758;5.784;2024-01-25T06:07:46;23.30;;;3.70;;
80625;SDS011;69982;51.758;5.784;2024-01-25T06:10:16;23.80;;;3.70;;
80625;SDS011;69982;51.758;5.784;2024-01-25T06:12:43;22.40;;;3.30;;
80625;SDS011;69982;51.758;5.784;2024-01-25T06:15:27;24.70;;;3.60;;
80625;SDS011;69982;51.758;5.784;2024-01-25T06:17:54;26.30;;;3.70;;
80625;SDS011;69982;51.758;5.784;2024-01-25T06:20:44;22.10;;;4.10;;
80625;SDS011;69982;51.758;5.784;2024-01-25T06:23:11;18.60;;;3.20;;
80625;SDS011;69982;51.758;5.784;2024-01-25T06:25:38;23.70;;;3.20;;
80625;SDS011;69982;51.758;5.784;2024-01-25T06:28:04;28.20;;;3.60;;
80625;SDS011;69982;51.758;5.784;2024-01-25T06:30:36;27.10;;;3.70;;
80625;SDS011;69982;51.758;5.784;2024-01-25T06:33:03;30.40;;;3.80;;
80625;SDS011;69982;51.758;5.784;2024-01-25T06:35:30;24.10;;;3.90;;
80625;SDS011;69982;51.758;5.784;2024-01-25T06:37:57;22.80;;;3.40;;
80625;SDS011;69982;51.758;5.784;2024-01-25T06:40:25;29.80;;;3.60;;
80625;SDS011;69982;51.758;5.784;2024-01-25T06:42:52;28.20;;;3.80;;
80625;SDS011;69982;51.758;5.784;2024-01-25T06:45:26;20.10;;;3.50;;
80625;SDS011;69982;51.758;5.784;2024-01-25T06:47:52;27.00;;;4.30;;
80625;SDS011;69982;51.758;5.784;2024-01-25T06:50:19;22.50;;;3.70;;
80625;SDS011;69982;51.758;5.784;2024-01-25T06:52:46;26.90;;;3.80;;
80625;SDS011;69982;51.758;5.784;2024-01-25T06:55:13;26.80;;;3.60;;
80625;SDS011;69982;51.758;5.784;2024-01-25T06:57:40;19.40;;;3.70;;
80625;SDS011;69982;51.758;5.784;2024-01-25T07:00:07;24.10;;;3.60;;
80625;SDS011;69982;51.758;5.784;2024-01-25T07:02:39;20.40;;;3.40;;
80625;SDS011;69982;51.758;5.784;2024-01-25T07:05:05;23.00;;;4.10;;
80625;SDS011;69982;51.758;5.784;2024-01-25T07:07:33;29.80;;;3.20;;
80625;SDS011;69982;51.758;5.784;2024-01-25T07:09:59;31.60;;;4.40;;
80625;SDS011;69982;51.758;5.784;2024-01-25T07:12:29;22.20;;;3.60;;
80625;SDS011;69982;51.758;5.784;2024-01-25T07:14:58;20.10;;;2.60;;
80625;SDS011;69982;51.758;5.784;2024-01-25T07:17:28;23.20;;;3.60;;
80625;SDS011;69982;51.758;5.784;2024-01-25T07:19:54;26.50;;;3.30;;
80625;SDS011;69982;51.758;5.784;2024-01-25T07:22:22;20.20;;;3.60;;
80625;SDS011;69982;51.758;5.784;2024-01-25T07:24:52;35.60;;;3.90;;
80625;SDS011;69982;51.758;5.784;2024-01-25T07:27:19;28.20;;;3.90;;
80625;SDS011;69982;51.758;5.784;2024-01-25T07:30:03;29.70;;;3.40;;
80625;SDS011;69982;51.758;5.784;2024-01-25T07:32:29;24.70;;;4.10;;
80625;SDS011;69982;51.758;5.784;2024-01-25T07:34:57;17.80;;;2.70;;
80625;SDS011;69982;51.758;5.784;2024-01-25T07:37:27;25.30;;;4.70;;
80625;SDS011;69982;51.758;5.784;2024-01-25T07:39:53;17.70;;;3.20;;
80625;SDS011;69982;51.758;5.784;2024-01-25T07:42:20;16.60;;;2.90;;
80625;SDS011;69982;51.758;5.784;2024-01-25T07:44:46;25.80;;;3.60;;
80625;SDS011;69982;51.758;5.784;2024-01-25T07:47:13;26.70;;;3.60;;
80625;SDS011;69982;51.758;5.784;2024-01-25T07:49:43;19.40;;;2.90;;
80625;SDS011;69982;51.758;5.784;2024-01-25T07:52:10;21.50;;;3.50;;
80625;SDS011;69982;51.758;5.784;2024-01-25T07:54:36;22.50;;;3.20;;
80625;SDS011;69982;51.758;5.784;2024-01-25T07:57:03;20.30;;;3.10;;
80625;SDS011;69982;51.758;5.784;2024-01-25T07:59:30;29.30;;;3.90;;
80625;SDS011;69982;51.758;5.784;2024-01-25T08:01:57;26.50;;;3.70;;
80625;SDS011;69982;51.758;5.784;2024-01-25T08:04:27;21.40;;;3.60;;
80625;SDS011;69982;51.758;5.784;2024-01-25T08:06:56;25.20;;;3.50;;
80625;SDS011;69982;51.758;5.784;2024-01-25T08:09:33;24.60;;;3.60;;
80625;SDS011;69982;51.758;5.784;2024-01-25T08:12:07;22.60;;;3.60;;
80625;SDS011;69982;51.758;5.784;2024-01-25T08:14:34;28.30;;;4.80;;
80625;SDS011;69982;51.758;5.784;2024-01-25T08:17:00;21.60;;;3.50;;
80625;SDS011;69982;51.758;5.784;2024-01-25T08:19:34;24.60;;;4.10;;
80625;SDS011;69982;51.758;5.784;2024-01-25T08:22:01;27.50;;;4.20;;
80625;SDS011;69982;51.758;5.784;2024-01-25T08:24:28;24.70;;;4.70;;
80625;SDS011;69982;51.758;5.784;2024-01-25T08:26:55;27.80;;;4.80;;
80625;SDS011;69982;51.758;5.784;2024-01-25T08:29:27;27.60;;;4.20;;
80625;SDS011;69982;51.758;5.784;2024-01-25T08:31:53;20.40;;;4.20;;
80625;SDS011;69982;51.758;5.784;2024-01-25T08:34:25;29.00;;;3.80;;
80625;SDS011;69982;51.758;5.784;2024-01-25T08:36:54;30.10;;;3.80;;
80625;SDS011;69982;51.758;5.784;2024-01-25T08:39:21;16.00;;;2.80;;
80625;SDS011;69982;51.758;5.784;2024-01-25T08:41:55;26.90;;;4.70;;
80625;SDS011;69982;51.758;5.784;2024-01-25T08:44:26;28.80;;;4.00;;
80625;SDS011;69982;51.758;5.784;2024-01-25T08:46:53;28.10;;;4.60;;
80625;SDS011;69982;51.758;5.784;2024-01-25T08:49:20;25.50;;;4.00;;
80625;SDS011;69982;51.758;5.784;2024-01-25T08:51:47;22.90;;;3.70;;
80625;SDS011;69982;51.758;5.784;2024-01-25T08:54:14;27.00;;;4.90;;
80625;SDS011;69982;51.758;5.784;2024-01-25T08:56:40;30.20;;;5.00;;
80625;SDS011;69982;51.758;5.784;2024-01-25T08:59:07;29.50;;;5.60;;
80625;SDS011;69982;51.758;5.784;2024-01-25T09:01:37;27.90;;;5.10;;
80625;SDS011;69982;51.758;5.784;2024-01-25T09:04:05;24.70;;;4.70;;
80625;SDS011;69982;51.758;5.784;2024-01-25T09:06:31;25.20;;;4.70;;
80625;SDS011;69982;51.758;5.784;2024-01-25T09:09:00;21.70;;;4.50;;
80625;SDS011;69982;51.758;5.784;2024-01-25T09:11:27;25.30;;;4.40;;
80625;SDS011;69982;51.758;5.784;2024-01-25T09:13:53;28.70;;;5.30;;
80625;SDS011;69982;51.758;5.784;2024-01-25T09:16:26;30.50;;;5.10;;
80625;SDS011;69982;51.758;5.784;2024-01-25T09:18:57;26.40;;;4.20;;
80625;SDS011;69982;51.758;5.784;2024-01-25T09:21:28;35.30;;;5.80;;
80625;SDS011;69982;51.758;5.784;2024-01-25T09:23:55;27.70;;;5.00;;
80625;SDS011;69982;51.758;5.784;2024-01-25T09:26:27;21.40;;;4.00;;
80625;SDS011;69982;51.758;5.784;2024-01-25T09:28:54;30.20;;;5.00;;
80625;SDS011;69982;51.758;5.784;2024-01-25T09:31:20;40.70;;;6.30;;
80625;SDS011;69982;51.758;5.784;2024-01-25T09:33:47;36.60;;;5.20;;
80625;SDS011;69982;51.758;5.784;2024-01-25T09:36:17;27.80;;;4.80;;
80625;SDS011;69982;51.758;5.784;2024-01-25T09:38:44;29.70;;;4.90;;
80625;SDS011;69982;51.758;5.784;2024-01-25T09:41:35;33.70;;;4.90;;
80625;SDS011;69982;51.758;5.784;2024-01-25T09:44:03;26.90;;;4.40;;
80625;SDS011;69982;51.758;5.784;2024-01-25T09:46:30;29.90;;;5.80;;
80625;SDS011;69982;51.758;5.784;2024-01-25T09:49:02;29.50;;;5.70;;
80625;SDS011;69982;51.758;5.784;2024-01-25T09:51:30;24.80;;;5.20;;
80625;SDS011;69982;51.758;5.784;2024-01-25T09:54:07;24.40;;;4.80;;
80625;SDS011;69982;51.758;5.784;2024-01-25T09:56:34;32.00;;;6.00;;
80625;SDS011;69982;51.758;5.784;2024-01-25T09:59:01;30.60;;;6.00;;
80625;SDS011;69982;51.758;5.784;2024-01-25T10:01:28;25.60;;;5.20;;
80625;SDS011;69982;51.758;5.784;2024-01-25T10:04:06;34.20;;;5.50;;
80625;SDS011;69982;51.758;5.784;2024-01-25T10:06:34;25.50;;;5.90;;
80625;SDS011;69982;51.758;5.784;2024-01-25T10:09:01;28.60;;;5.60;;
80625;SDS011;69982;51.758;5.784;2024-01-25T10:11:28;32.00;;;6.00;;
80625;SDS011;69982;51.758;5.784;2024-01-25T10:14:04;26.60;;;6.10;;
80625;SDS011;69982;51.758;5.784;2024-01-25T10:16:38;21.20;;;5.40;;
80625;SDS011;69982;51.758;5.784;2024-01-25T10:19:06;26.40;;;5.90;;
80625;SDS011;69982;51.758;5.784;2024-01-25T10:21:41;23.20;;;5.30;;
80625;SDS011;69982;51.758;5.784;2024-01-25T10:24:08;32.20;;;6.10;;
80625;SDS011;69982;51.758;5.784;2024-01-25T10:26:36;27.70;;;5.40;;
80625;SDS011;69982;51.758;5.784;2024-01-25T10:29:03;31.30;;;6.60;;
80625;SDS011;69982;51.758;5.784;2024-01-25T10:31:32;29.50;;;6.70;;
80625;SDS011;69982;51.758;5.784;2024-01-25T10:34:05;28.40;;;6.20;;
80625;SDS011;69982;51.758;5.784;2024-01-25T10:36:33;33.50;;;6.20;;
80625;SDS011;69982;51.758;5.784;2024-01-25T10:39:01;34.60;;;6.80;;
80625;SDS011;69982;51.758;5.784;2024-01-25T10:41:31;28.00;;;6.20;;
80625;SDS011;69982;51.758;5.784;2024-01-25T10:44:04;31.00;;;6.30;;
80625;SDS011;69982;51.758;5.784;2024-01-25T10:46:32;28.80;;;6.10;;
80625;SDS011;69982;51.758;5.784;2024-01-25T10:49:00;34.20;;;6.60;;
80625;SDS011;69982;51.758;5.784;2024-01-25T10:51:28;30.20;;;6.40;;
80625;SDS011;69982;51.758;5.784;2024-01-25T10:53:56;27.10;;;6.20;;
80625;SDS011;69982;51.758;5.784;2024-01-25T10:56:27;32.40;;;6.10;;
80625;SDS011;69982;51.758;5.784;2024-01-25T10:58:59;26.30;;;6.50;;
80625;SDS011;69982;51.758;5.784;2024-01-25T11:01:33;27.30;;;5.60;;
80625;SDS011;69982;51.758;5.784;2024-01-25T11:04:00;32.70;;;6.20;;
80625;SDS011;69982;51.758;5.784;2024-01-25T11:06:27;26.80;;;5.80;;
80625;SDS011;69982;51.758;5.784;2024-01-25T11:09:04;24.90;;;6.40;;
80625;SDS011;69982;51.758;5.784;2024-01-25T11:11:37;27.20;;;6.50;;
80625;SDS011;69982;51.758;5.784;2024-01-25T11:14:13;26.00;;;6.40;;
80625;SDS011;69982;51.758;5.784;2024-01-25T11:16:43;31.60;;;6.10;;
80625;SDS011;69982;51.758;5.784;2024-01-25T11:19:19;35.70;;;6.70;;
80625;SDS011;69982;51.758;5.784;2024-01-25T11:21:58;34.90;;;7.90;;
80625;SDS011;69982;51.758;5.784;2024-01-25T11:24:36;33.90;;;6.30;;
80625;SDS011;69982;51.758;5.784;2024-01-25T11:27:14;28.30;;;6.70;;
80625;SDS011;69982;51.758;5.784;2024-01-25T11:29:41;31.90;;;6.80;;
80625;SDS011;69982;51.758;5.784;2024-01-25T11:32:11;37.60;;;7.60;;
80625;SDS011;69982;51.758;5.784;2024-01-25T11:34:46;26.80;;;6.20;;
80625;SDS011;69982;51.758;5.784;2024-01-25T11:37:28;27.70;;;7.00;;
80625;SDS011;69982;51.758;5.784;2024-01-25T11:40:05;29.90;;;7.20;;
80625;SDS011;69982;51.758;5.784;2024-01-25T11:42:44;32.10;;;6.40;;
80625;SDS011;69982;51.758;5.784;2024-01-25T11:45:23;32.80;;;6.80;;
80625;SDS011;69982;51.758;5.784;2024-01-25T11:48:48;24.20;;;6.30;;
80625;SDS011;69982;51.758;5.784;2024-01-25T11:51:15;29.20;;;7.00;;
80625;SDS011;69982;51.758;5.784;2024-01-25T11:53:42;33.10;;;6.60;;
80625;SDS011;69982;51.758;5.784;2024-01-25T11:56:14;34.80;;;7.20;;
80625;SDS011;69982;51.758;5.784;2024-01-25T11:58:56;29.40;;;6.90;;
80625;SDS011;69982;51.758;5.784;2024-01-25T12:01:30;32.00;;;7.60;;
80625;SDS011;69982;51.758;5.784;2024-01-25T12:04:01;27.90;;;7.50;;
80625;SDS011;69982;51.758;5.784;2024-01-25T12:06:29;28.70;;;7.50;;
80625;SDS011;69982;51.758;5.784;2024-01-25T12:09:09;33.40;;;7.80;;
80625;SDS011;69982;51.758;5.784;2024-01-25T12:11:38;29.70;;;7.90;;
80625;SDS011;69982;51.758;5.784;2024-01-25T12:14:07;32.00;;;8.50;;
80625;SDS011;69982;51.758;5.784;2024-01-25T12:16:36;28.10;;;7.90;;
80625;SDS011;69982;51.758;5.784;2024-01-25T12:19:06;29.30;;;8.30;;
80625;SDS011;69982;51.758;5.784;2024-01-25T12:21:36;27.70;;;8.20;;
80625;SDS011;69982;51.758;5.784;2024-01-25T12:26:54;36.10;;;8.40;;
80625;SDS011;69982;51.758;5.784;2024-01-25T12:29:21;36.70;;;8.40;;
80625;SDS011;69982;51.758;5.784;2024-01-25T12:31:59;34.00;;;8.00;;
80625;SDS011;69982;51.758;5.784;2024-01-25T12:34:36;33.30;;;8.40;;
80625;SDS011;69982;51.758;5.784;2024-01-25T12:37:06;27.20;;;8.70;;
80625;SDS011;69982;51.758;5.784;2024-01-25T12:42:52;25.60;;;7.40;;
80625;SDS011;69982;51.758;5.784;2024-01-25T12:45:22;26.60;;;8.10;;
80625;SDS011;69982;51.758;5.784;2024-01-25T12:48:29;31.10;;;8.10;;
80625;SDS011;69982;51.758;5.784;2024-01-25T12:50:59;33.80;;;9.00;;
80625;SDS011;69982;51.758;5.784;2024-01-25T12:53:56;34.30;;;9.60;;
80625;SDS011;69982;51.758;5.784;2024-01-25T12:56:23;31.50;;;9.30;;
80625;SDS011;69982;51.758;5.784;2024-01-25T12:59:02;29.20;;;9.80;;
80625;SDS011;69982;51.758;5.784;2024-01-25T13:02:11;37.70;;;10.70;;
80625;SDS011;69982;51.758;5.784;2024-01-25T13:04:47;33.40;;;10.20;;
80625;SDS011;69982;51.758;5.784;2024-01-25T13:07:18;33.70;;;10.00;;
80625;SDS011;69982;51.758;5.784;2024-01-25T13:09:45;36.30;;;12.30;;
80625;SDS011;69982;51.758;5.784;2024-01-25T13:12:18;33.80;;;12.30;;
80625;SDS011;69982;51.758;5.784;2024-01-25T13:14:56;36.10;;;11.30;;
80625;SDS011;69982;51.758;5.784;2024-01-25T13:17:28;32.30;;;11.40;;
80625;SDS011;69982;51.758;5.784;2024-01-25T13:19:57;33.50;;;10.90;;
80625;SDS011;69982;51.758;5.784;2024-01-25T13:22:29;40.90;;;11.40;;
80625;SDS011;69982;51.758;5.784;2024-01-25T13:24:59;37.80;;;12.70;;
80625;SDS011;69982;51.758;5.784;2024-01-25T13:27:27;41.70;;;12.80;;
80625;SDS011;69982;51.758;5.784;2024-01-25T13:29:54;43.00;;;12.60;;
80625;SDS011;69982;51.758;5.784;2024-01-25T13:32:29;39.80;;;13.00;;
80625;SDS011;69982;51.758;5.784;2024-01-25T13:35:48;40.30;;;12.80;;
80625;SDS011;69982;51.758;5.784;2024-01-25T13:38:24;43.40;;;13.90;;
80625;SDS011;69982;51.758;5.784;2024-01-25T13:41:30;43.30;;;11.90;;
80625;SDS011;69982;51.758;5.784;2024-01-25T13:44:18;45.30;;;13.60;;
80625;SDS011;69982;51.758;5.784;2024-01-25T13:46:49;43.10;;;13.60;;
80625;SDS011;69982;51.758;5.784;2024-01-25T13:49:28;47.30;;;14.30;;
80625;SDS011;69982;51.758;5.784;2024-01-25T13:51:56;42.60;;;13.40;;
80625;SDS011;69982;51.758;5.784;2024-01-25T13:58:19;47.50;;;14.70;;
80625;SDS011;69982;51.758;5.784;2024-01-25T14:00:58;46.50;;;15.80;;
80625;SDS011;69982;51.758;5.784;2024-01-25T14:03:28;52.50;;;15.80;;
80625;SDS011;69982;51.758;5.784;2024-01-25T14:05:57;45.50;;;14.90;;
80625;SDS011;69982;51.758;5.784;2024-01-25T14:08:46;41.30;;;13.60;;
80625;SDS011;69982;51.758;5.784;2024-01-25T14:11:15;42.90;;;14.70;;
80625;SDS011;69982;51.758;5.784;2024-01-25T14:13:44;47.40;;;13.00;;
80625;SDS011;69982;51.758;5.784;2024-01-25T14:16:12;39.00;;;12.10;;
80625;SDS011;69982;51.758;5.784;2024-01-25T14:18:53;30.90;;;10.80;;
80625;SDS011;69982;51.758;5.784;2024-01-25T14:24:46;40.70;;;9.90;;
80625;SDS011;69982;51.758;5.784;2024-01-25T14:27:14;39.00;;;12.00;;
80625;SDS011;69982;51.758;5.784;2024-01-25T14:29:47;32.30;;;10.30;;
80625;SDS011;69982;51.758;5.784;2024-01-25T14:32:29;37.60;;;10.00;;
80625;SDS011;69982;51.758;5.784;2024-01-25T14:35:00;41.60;;;9.90;;
80625;SDS011;69982;51.758;5.784;2024-01-25T14:37:36;41.20;;;10.30;;
80625;SDS011;69982;51.758;5.784;2024-01-25T14:40:03;33.00;;;9.50;;
80625;SDS011;69982;51.758;5.784;2024-01-25T14:42:37;30.90;;;8.90;;
80625;SDS011;69982;51.758;5.784;2024-01-25T14:45:11;32.40;;;8.50;;
80625;SDS011;69982;51.758;5.784;2024-01-25T14:47:43;31.40;;;9.10;;
80625;SDS011;69982;51.758;5.784;2024-01-25T14:50:20;28.40;;;7.80;;
80625;SDS011;69982;51.758;5.784;2024-01-25T14:52:47;28.70;;;8.80;;
80625;SDS011;69982;51.758;5.784;2024-01-25T14:55:27;37.20;;;9.90;;
80625;SDS011;69982;51.758;5.784;2024-01-25T14:57:56;33.10;;;8.50;;
80625;SDS011;69982;51.758;5.784;2024-01-25T15:00:23;34.50;;;10.00;;
80625;SDS011;69982;51.758;5.784;2024-01-25T15:02:57;31.40;;;9.00;;
80625;SDS011;69982;51.758;5.784;2024-01-25T15:05:27;25.10;;;8.90;;
80625;SDS011;69982;51.758;5.784;2024-01-25T15:07:57;36.30;;;8.60;;
80625;SDS011;69982;51.758;5.784;2024-01-25T15:10:29;31.10;;;8.30;;
80625;SDS011;69982;51.758;5.784;2024-01-25T15:13:03;30.30;;;8.00;;
80625;SDS011;69982;51.758;5.784;2024-01-25T15:15:36;27.70;;;8.20;;
80625;SDS011;69982;51.758;5.784;2024-01-25T15:21:06;27.90;;;7.70;;
80625;SDS011;69982;51.758;5.784;2024-01-25T15:23:45;28.80;;;8.60;;